Time;durP1;ratioP1;P1;durP2;ratioP2;P2;SDS_P1;SDS_P2;PMS_P1;PMS_P2;Temp;Humidity;BMP_temperature;BMP_pressure;BME280_temperature;BME280_humidity;BME280_pressure;Samples;Min_cycle;Max_cycle;Signal;HPM_P1;HPM_P2
2023/01/19 00:02:24;;;;;;;2.88;1.92;;;3.00;99.90;;;;;;4889094;29;20051;-84
2023/01/19 00:04:50;;;;;;;4.65;2.13;;;4.10;99.90;;;;;;4893895;29;20092;-84
2023/01/19 00:07:16;;;;;;;4.93;2.20;;;3.10;99.90;;;;;;4884457;29;20387;-84
2023/01/19 00:09:41;;;;;;;6.90;2.40;;;3.10;99.90;;;;;;4908780;29;20326;-84
2023/01/19 00:12:07;;;;;;;3.22;2.10;;;4.10;99.90;;;;;;4858877;29;20080;-84
2023/01/19 00:14:33;;;;;;;2.92;1.80;;;4.00;99.90;;;;;;4895146;29;20044;-84
2023/01/19 00:17:00;;;;;;;4.20;2.67;;;3.10;99.90;;;;;;4876887;29;20072;-85
2023/01/19 00:19:29;;;;;;;5.68;2.35;;;3.10;99.90;;;;;;4876920;29;20051;-84
2023/01/19 00:21:55;;;;;;;5.85;2.75;;;3.00;99.90;;;;;;4857380;29;20528;-84
2023/01/19 00:24:21;;;;;;;5.63;2.22;;;3.10;99.90;;;;;;4865605;29;20048;-84
2023/01/19 00:26:47;;;;;;;4.72;2.38;;;3.10;99.90;;;;;;4860801;29;20123;-83
2023/01/19 00:29:14;;;;;;;6.13;2.70;;;3.10;99.90;;;;;;4874593;29;20051;-84
2023/01/19 00:31:40;;;;;;;6.57;2.70;;;3.10;99.90;;;;;;4862846;29;20108;-84
2023/01/19 00:34:06;;;;;;;6.32;2.45;;;4.00;99.90;;;;;;4891244;29;20040;-84
2023/01/19 00:36:32;;;;;;;;;;;3.90;99.90;;;;;;4876049;29;20119;-83
2023/01/19 00:38:58;;;;;;;5.40;2.78;;;3.70;99.90;;;;;;4891871;29;20026;-84
2023/01/19 00:44:09;;;;;;;3.80;2.22;;;4.80;99.90;;;;;;4876594;29;20099;-84
2023/01/19 00:46:35;;;;;;;;;;;3.50;99.90;;;;;;4888241;29;20066;-84
2023/01/19 00:49:00;;;;;;;5.10;1.80;;;3.70;99.90;;;;;;4874352;29;20315;-85
2023/01/19 00:51:26;;;;;;;3.42;2.25;;;3.10;99.90;;;;;;4872769;29;20055;-85
2023/01/19 00:53:52;;;;;;;4.97;2.15;;;3.30;99.90;;;;;;4874748;29;20047;-84
2023/01/19 00:56:17;;;;;;;6.50;2.55;;;3.20;99.90;;;;;;4874863;29;20037;-85
2023/01/19 00:58:46;;;;;;;2.92;1.65;;;4.20;99.90;;;;;;4883183;29;20131;-84
2023/01/19 01:01:12;;;;;;;4.97;2.35;;;3.70;99.90;;;;;;4877196;29;20044;-84
2023/01/19 01:03:41;;;;;;;3.03;2.03;;;3.10;99.90;;;;;;4887969;29;20053;-84
2023/01/19 01:06:07;;;;;;;5.68;2.65;;;3.70;99.90;;;;;;4891154;29;20465;-84
2023/01/19 01:08:33;;;;;;;6.75;1.90;;;3.20;99.90;;;;;;4855149;29;20033;-84
2023/01/19 01:11:00;;;;;;;3.97;1.30;;;4.60;99.90;;;;;;4890168;29;20405;-85
2023/01/19 01:13:26;;;;;;;3.55;1.10;;;4.40;99.90;;;;;;4872397;29;20055;-85
2023/01/19 01:15:54;;;;;;;3.92;1.88;;;3.90;99.90;;;;;;4890072;29;20040;-84
2023/01/19 01:18:20;;;;;;;6.93;1.48;;;4.50;99.90;;;;;;4871478;29;20529;-84
2023/01/19 01:20:46;;;;;;;4.80;1.30;;;3.20;99.90;;;;;;4859270;29;20040;-84
2023/01/19 01:23:12;;;;;;;2.33;1.08;;;3.30;99.90;;;;;;4841704;29;20098;-84
2023/01/19 01:25:38;;;;;;;3.53;1.00;;;3.70;99.90;;;;;;4875763;29;20168;-84
2023/01/19 01:28:07;;;;;;;1.60;1.02;;;4.60;99.90;;;;;;4884131;29;20128;-85
2023/01/19 01:30:34;;;;;;;5.60;0.82;;;3.40;99.90;;;;;;4890550;29;20158;-84
2023/01/19 01:33:00;;;;;;;2.08;0.85;;;4.50;99.90;;;;;;4871341;29;20187;-85
2023/01/19 01:35:26;;;;;;;2.30;0.75;;;3.40;99.90;;;;;;4873376;29;20504;-84
2023/01/19 01:37:52;;;;;;;3.42;0.95;;;3.80;99.90;;;;;;4890479;29;20215;-84
2023/01/19 01:40:18;;;;;;;3.63;1.13;;;3.40;99.90;;;;;;4872825;29;20071;-85
2023/01/19 01:42:44;;;;;;;1.30;1.02;;;3.40;99.90;;;;;;4878306;29;20096;-85
2023/01/19 01:45:37;;;;;;;2.95;1.20;;;3.80;99.90;;;;;;4872362;29;20067;-84
2023/01/19 01:48:27;;;;;;;3.63;1.25;;;3.40;99.90;;;;;;4888362;29;20253;-85
2023/01/19 01:53:46;;;;;;;5.18;1.90;;;3.40;99.90;;;;;;4881677;29;20055;-84
2023/01/19 01:56:17;;;;;;;4.95;1.83;;;3.80;99.90;;;;;;4890019;29;20071;-84
2023/01/19 01:58:43;;;;;;;2.83;1.80;;;3.40;99.90;;;;;;4876662;29;20404;-84
2023/01/19 02:03:53;;;;;;;5.40;2.15;;;3.70;99.90;;;;;;4893666;29;20047;-85
2023/01/19 02:06:20;;;;;;;4.07;2.00;;;3.80;99.90;;;;;;4889383;29;20504;-85
2023/01/19 02:14:21;;;;;;;2.67;2.25;;;3.30;99.90;;;;;;4889104;29;20511;-85
2023/01/19 02:16:47;;;;;;;5.38;2.35;;;4.60;99.90;;;;;;4880136;29;20036;-84
2023/01/19 02:19:20;;;;;;;4.97;2.22;;;3.20;99.90;;;;;;4866530;29;20040;-84
2023/01/19 02:22:02;;;;;;;4.32;2.58;;;3.90;99.90;;;;;;4886366;29;20051;-83
2023/01/19 02:24:29;;;;;;;4.05;2.55;;;3.20;99.90;;;;;;4879487;29;20036;-83
2023/01/19 02:26:55;;;;;;;3.95;2.45;;;3.40;99.90;;;;;;4902261;29;20066;-83
2023/01/19 02:29:23;;;;;;;;;;;3.10;99.90;;;;;;4891035;29;20087;-84
2023/01/19 02:31:49;;;;;;;5.65;3.05;;;4.60;99.90;;;;;;4890969;29;19923;-84
2023/01/19 02:34:17;;;;;;;4.70;2.80;;;3.20;99.90;;;;;;4893790;29;20047;-83
2023/01/19 02:36:46;;;;;;;4.78;2.55;;;3.10;99.90;;;;;;4897685;29;20040;-83
2023/01/19 02:39:13;;;;;;;7.35;3.33;;;3.10;99.90;;;;;;4894685;29;20051;-82
2023/01/19 02:41:47;;;;;;;4.38;2.50;;;4.30;99.90;;;;;;4873079;29;20067;-82
2023/01/19 02:44:14;;;;;;;6.72;2.40;;;3.00;99.90;;;;;;4881405;29;20036;-83
2023/01/19 02:46:40;;;;;;;3.28;1.88;;;3.00;99.90;;;;;;4875077;29;20072;-83
2023/01/19 02:49:06;;;;;;;;;;;2.90;99.90;;;;;;4873367;29;20048;-83
2023/01/19 02:51:33;;;;;;;3.38;2.10;;;4.20;99.90;;;;;;4886814;29;20299;-82
2023/01/19 02:54:30;;;;;;;4.47;2.10;;;2.90;99.90;;;;;;4897878;29;20495;-83
2023/01/19 02:57:34;;;;;;;5.13;2.70;;;3.00;99.90;;;;;;4885004;29;20068;-82
2023/01/19 03:00:36;;;;;;;3.92;2.47;;;2.90;99.90;;;;;;4835246;29;20057;-82
2023/01/19 03:03:05;;;;;;;3.90;2.47;;;2.90;99.90;;;;;;4868916;29;20088;-82
2023/01/19 03:05:50;;;;;;;5.05;2.47;;;2.90;99.90;;;;;;4876784;29;20036;-82
2023/01/19 03:08:54;;;;;;;3.70;2.15;;;3.00;99.90;;;;;;4880921;29;20072;-82
2023/01/19 03:11:26;;;;;;;4.00;2.53;;;3.00;99.90;;;;;;4878737;29;20057;-83
2023/01/19 03:14:07;;;;;;;4.15;2.60;;;2.90;99.90;;;;;;4881193;29;20078;-83
2023/01/19 03:16:48;;;;;;;5.47;3.05;;;2.90;99.90;;;;;;4896034;29;20119;-83
2023/01/19 03:19:27;;;;;;;7.30;2.80;;;3.00;99.90;;;;;;4892125;29;20453;-81
2023/01/19 03:22:07;;;;;;;5.20;2.50;;;2.80;99.90;;;;;;4892783;29;20043;-81
2023/01/19 03:24:38;;;;;;;8.02;3.67;;;2.80;99.90;;;;;;4891652;29;20139;-81
2023/01/19 03:27:25;;;;;;;5.50;3.17;;;3.80;99.90;;;;;;4888069;29;20052;-82
2023/01/19 03:29:55;;;;;;;6.45;3.35;;;2.90;99.90;;;;;;4889941;29;20115;-81
2023/01/19 03:32:28;;;;;;;5.40;2.97;;;3.20;99.90;;;;;;4895365;29;20512;-82
2023/01/19 03:34:58;;;;;;;7.35;3.10;;;2.80;99.90;;;;;;4887069;29;20066;-81
2023/01/19 03:37:26;;;;;;;4.95;2.88;;;2.80;99.90;;;;;;4893300;29;20036;-82
2023/01/19 03:39:52;;;;;;;6.97;3.10;;;2.90;99.90;;;;;;4888852;29;20100;-82
2023/01/19 03:42:19;;;;;;;8.05;3.10;;;3.80;99.90;;;;;;4876311;29;20052;-82
2023/01/19 03:44:49;;;;;;;6.95;3.15;;;2.90;99.90;;;;;;4870773;29;20504;-82
2023/01/19 03:47:16;;;;;;;6.97;3.22;;;4.50;99.90;;;;;;4888307;29;20092;-82
2023/01/19 03:49:44;;;;;;;8.32;3.53;;;2.80;99.90;;;;;;4888280;29;20124;-82
2023/01/19 03:52:10;;;;;;;8.00;3.53;;;3.20;99.90;;;;;;4892539;29;20040;-83
2023/01/19 03:54:36;;;;;;;8.32;3.47;;;3.00;99.90;;;;;;4872456;29;20560;-82
2023/01/19 03:57:01;;;;;;;8.10;3.40;;;2.80;99.90;;;;;;4887966;29;20044;-82
2023/01/19 03:59:27;;;;;;;7.80;3.27;;;2.70;99.90;;;;;;4899834;29;20050;-83
2023/01/19 04:01:53;;;;;;;8.38;3.42;;;2.80;99.90;;;;;;4893376;29;20379;-83
2023/01/19 04:04:19;;;;;;;11.00;3.60;;;3.00;99.90;;;;;;4875627;29;20052;-83
2023/01/19 04:06:44;;;;;;;9.87;3.93;;;4.40;99.90;;;;;;4895394;29;20396;-84
2023/01/19 04:09:10;;;;;;;10.98;3.70;;;4.40;99.90;;;;;;4892341;29;20049;-84
2023/01/19 04:11:36;;;;;;;9.05;3.88;;;4.30;99.90;;;;;;4892628;29;20052;-83
2023/01/19 04:14:02;;;;;;;9.98;4.32;;;2.80;99.90;;;;;;4874566;29;20067;-84
2023/01/19 04:16:27;;;;;;;8.27;3.95;;;2.80;99.90;;;;;;4890311;29;20036;-84
2023/01/19 04:18:54;;;;;;;9.57;3.88;;;2.80;99.90;;;;;;4874516;29;20068;-84
2023/01/19 04:21:20;;;;;;;;;;;2.80;99.90;;;;;;4890511;29;20426;-84
2023/01/19 04:23:45;;;;;;;9.10;3.28;;;3.10;99.90;;;;;;4893457;29;19926;-84
2023/01/19 04:26:12;;;;;;;6.47;4.00;;;2.80;99.90;;;;;;4899661;29;20040;-83
2023/01/19 04:28:38;;;;;;;8.55;4.00;;;2.80;99.90;;;;;;4892812;29;20521;-84
2023/01/19 04:31:05;;;;;;;11.73;3.97;;;2.70;99.90;;;;;;4875784;29;20044;-84
2023/01/19 04:33:31;;;;;;;8.50;3.92;;;2.80;99.90;;;;;;4856713;29;20044;-84
2023/01/19 04:35:57;;;;;;;8.02;3.28;;;2.70;99.90;;;;;;4882504;29;20024;-84
2023/01/19 04:38:24;;;;;;;10.85;3.92;;;2.80;99.90;;;;;;4869284;29;20048;-84
2023/01/19 04:40:51;;;;;;;9.32;3.80;;;2.70;99.90;;;;;;4876475;29;20043;-84
2023/01/19 04:43:18;;;;;;;7.70;3.25;;;3.80;99.90;;;;;;4894884;29;20044;-84
2023/01/19 04:45:45;;;;;;;8.00;3.83;;;4.10;99.90;;;;;;4887600;29;20045;-84
2023/01/19 04:48:10;;;;;;;;;;;3.00;99.90;;;;;;4888589;29;20512;-84
2023/01/19 04:50:36;;;;;;;8.52;3.80;;;3.00;99.90;;;;;;4874992;29;19919;-85
2023/01/19 04:53:02;;;;;;;7.82;3.17;;;2.70;99.90;;;;;;4889650;29;20043;-85
2023/01/19 04:55:28;;;;;;;10.25;3.75;;;3.50;99.90;;;;;;4874240;29;20040;-85
2023/01/19 04:57:53;;;;;;;6.77;3.30;;;2.80;99.90;;;;;;4888260;29;20516;-85
2023/01/19 05:00:19;;;;;;;6.15;2.60;;;3.40;99.90;;;;;;4890293;29;20497;-85
2023/01/19 05:02:46;;;;;;;9.73;3.40;;;2.60;99.90;;;;;;4875893;29;20154;-84
2023/01/19 05:05:12;;;;;;;7.50;3.53;;;4.30;99.90;;;;;;4884638;29;20516;-85
2023/01/19 05:07:38;;;;;;;5.68;3.00;;;2.60;99.90;;;;;;4887426;29;20036;-85
2023/01/19 05:10:05;;;;;;;6.85;3.08;;;2.60;99.90;;;;;;4892445;29;20115;-85
2023/01/19 05:12:32;;;;;;;7.88;2.67;;;2.60;99.90;;;;;;4883124;29;20513;-85
2023/01/19 05:14:58;;;;;;;;;;;2.60;99.90;;;;;;4881725;29;20037;-85
2023/01/19 05:17:23;;;;;;;5.75;2.22;;;2.90;99.90;;;;;;4892824;29;19919;-84
2023/01/19 05:19:49;;;;;;;5.05;2.08;;;2.60;99.90;;;;;;4854854;29;20119;-84
2023/01/19 05:22:15;;;;;;;6.70;2.30;;;4.00;99.90;;;;;;4879164;29;20041;-84
2023/01/19 05:24:41;;;;;;;4.63;1.65;;;2.60;99.90;;;;;;4895216;29;20032;-83
2023/01/19 05:27:07;;;;;;;7.40;1.67;;;3.10;99.90;;;;;;4871146;29;20476;-83
2023/01/19 05:29:33;;;;;;;4.35;1.40;;;4.10;99.90;;;;;;4889690;29;20124;-83
2023/01/19 05:31:59;;;;;;;3.78;1.20;;;2.50;99.90;;;;;;4889955;29;20032;-82
2023/01/19 05:34:25;;;;;;;5.60;1.30;;;2.60;99.90;;;;;;4880317;29;20049;-83
2023/01/19 05:36:52;;;;;;;3.97;1.05;;;2.50;99.90;;;;;;4874215;29;20036;-82
2023/01/19 05:39:17;;;;;;;;;;;2.50;99.90;;;;;;4879962;29;20036;-83
2023/01/19 05:41:44;;;;;;;2.33;0.90;;;2.80;99.90;;;;;;4871213;29;19923;-83
2023/01/19 05:44:10;;;;;;;3.72;1.00;;;3.10;99.90;;;;;;4865160;29;20045;-83
2023/01/19 05:46:36;;;;;;;4.45;0.77;;;2.50;99.90;;;;;;4876711;29;20048;-83
2023/01/19 05:49:03;;;;;;;3.35;0.90;;;3.90;99.90;;;;;;4891221;29;20047;-83
2023/01/19 05:51:44;;;;;;;2.92;0.75;;;2.70;99.90;;;;;;4874305;29;20100;-82
2023/01/19 05:54:13;;;;;;;4.90;0.80;;;2.50;99.90;;;;;;4865572;29;20048;-82
2023/01/19 05:56:39;;;;;;;3.28;0.80;;;3.90;99.90;;;;;;4874221;29;20123;-83
2023/01/19 05:59:04;;;;;;;1.83;0.60;;;2.90;99.90;;;;;;4889329;29;20131;-80
2023/01/19 06:01:32;;;;;;;4.80;0.85;;;2.70;99.90;;;;;;4871178;29;20556;-79
2023/01/19 06:03:57;;;;;;;3.47;0.70;;;3.40;99.90;;;;;;4882513;29;20484;-79
2023/01/19 06:06:23;;;;;;;4.28;0.80;;;2.80;99.90;;;;;;4888468;29;20055;-80
2023/01/19 06:08:49;;;;;;;0.98;0.60;;;3.10;99.90;;;;;;4871973;29;20066;-80
2023/01/19 06:11:14;;;;;;;1.90;0.70;;;4.00;99.90;;;;;;4872925;29;20056;-80
2023/01/19 06:13:40;;;;;;;1.77;1.13;;;2.90;99.90;;;;;;4870242;29;20065;-79
2023/01/19 06:16:07;;;;;;;6.32;0.70;;;2.70;99.90;;;;;;4857215;29;20036;-79
2023/01/19 06:18:33;;;;;;;4.40;0.80;;;3.80;99.90;;;;;;4888187;29;20123;-80
2023/01/19 06:21:05;;;;;;;4.55;0.73;;;2.70;99.90;;;;;;4886441;29;20469;-79
2023/01/19 06:23:32;;;;;;;4.38;0.90;;;2.70;99.90;;;;;;4888269;29;20045;-79
2023/01/19 06:25:58;;;;;;;4.22;1.55;;;2.60;99.90;;;;;;4882328;29;20409;-79
2023/01/19 06:28:24;;;;;;;4.28;1.00;;;3.20;99.90;;;;;;4875596;29;20564;-79
2023/01/19 06:30:51;;;;;;;4.85;1.15;;;2.60;99.90;;;;;;4886771;29;20048;-79
2023/01/19 06:33:18;;;;;;;8.07;1.10;;;2.70;99.90;;;;;;4890624;29;20063;-79
2023/01/19 06:35:48;;;;;;;3.83;0.98;;;2.70;99.90;;;;;;4887514;29;20492;-79
2023/01/19 06:38:15;;;;;;;8.05;0.90;;;2.80;99.90;;;;;;4886975;29;20410;-79
2023/01/19 06:40:41;;;;;;;7.50;1.02;;;2.80;99.90;;;;;;4888521;29;20158;-79
2023/01/19 06:43:08;;;;;;;8.98;1.20;;;3.80;99.90;;;;;;4873243;29;20162;-79
2023/01/19 06:45:34;;;;;;;4.88;1.40;;;4.20;99.90;;;;;;4886036;29;20059;-79
2023/01/19 06:48:00;;;;;;;5.07;1.10;;;2.80;99.90;;;;;;4886308;29;20055;-79
2023/01/19 06:50:26;;;;;;;5.72;1.50;;;2.70;99.90;;;;;;4891282;29;20111;-79
2023/01/19 06:52:52;;;;;;;7.15;1.00;;;3.50;99.90;;;;;;4888416;29;20051;-79
2023/01/19 06:55:18;;;;;;;7.88;1.20;;;2.60;99.90;;;;;;4872706;29;20040;-79
2023/01/19 06:57:43;;;;;;;7.65;1.27;;;2.60;99.90;;;;;;4856808;29;20047;-79
2023/01/19 07:00:11;;;;;;;7.43;1.40;;;2.60;99.90;;;;;;4891339;29;20092;-79
2023/01/19 07:02:43;;;;;;;7.47;1.30;;;2.60;99.90;;;;;;4859069;29;20032;-79
2023/01/19 07:05:13;;;;;;;4.22;0.98;;;2.50;99.90;;;;;;4863550;29;20040;-79
2023/01/19 07:07:41;;;;;;;5.15;1.20;;;2.80;99.90;;;;;;4892324;29;20056;-79
2023/01/19 07:10:08;;;;;;;8.45;0.95;;;2.80;99.90;;;;;;4892032;29;20497;-79
2023/01/19 07:12:34;;;;;;;8.77;1.05;;;2.70;99.90;;;;;;4889395;29;20124;-79
2023/01/19 07:15:00;;;;;;;;;;;2.90;99.90;;;;;;4891952;29;20052;-79
2023/01/19 07:17:26;;;;;;;8.20;0.90;;;3.60;99.90;;;;;;4891651;29;20555;-79
2023/01/19 07:19:51;;;;;;;8.32;1.23;;;4.30;99.90;;;;;;4889373;29;20051;-79
2023/01/19 07:22:17;;;;;;;3.97;0.90;;;3.00;99.90;;;;;;4890783;29;20123;-79
2023/01/19 07:24:43;;;;;;;4.32;0.90;;;4.40;99.90;;;;;;4875567;29;20040;-79
2023/01/19 07:27:10;;;;;;;5.77;1.00;;;3.00;99.90;;;;;;4875649;29;20472;-79
2023/01/19 07:29:36;;;;;;;4.40;1.00;;;3.10;99.90;;;;;;4891374;29;20497;-79
2023/01/19 07:32:02;;;;;;;14.85;1.15;;;3.10;99.90;;;;;;4888540;29;20076;-79
2023/01/19 07:34:28;;;;;;;7.88;1.42;;;3.10;99.90;;;;;;4875465;29;20068;-79
2023/01/19 07:36:55;;;;;;;5.80;1.00;;;3.10;99.90;;;;;;4875865;29;20040;-79
2023/01/19 07:39:20;;;;;;;15.15;1.80;;;3.10;99.90;;;;;;4870741;29;20056;-79
2023/01/19 07:41:47;;;;;;;8.30;1.35;;;3.10;99.90;;;;;;4872812;29;20099;-79
2023/01/19 07:44:13;;;;;;;8.07;0.90;;;3.60;99.90;;;;;;4854100;29;20485;-79
2023/01/19 07:46:39;;;;;;;13.27;2.63;;;3.10;99.90;;;;;;4889773;29;20119;-79
2023/01/19 07:49:05;;;;;;;9.57;1.77;;;3.20;99.90;;;;;;4859792;29;20519;-79
2023/01/19 07:51:30;;;;;;;11.05;1.60;;;3.80;99.90;;;;;;4859492;29;20501;-78
2023/01/19 07:53:57;;;;;;;8.90;1.53;;;2.00;99.90;;;;;;4892641;29;20135;-79
2023/01/19 07:56:23;;;;;;;11.65;1.88;;;3.40;99.90;;;;;;4890857;29;20124;-79
2023/01/19 07:58:51;;;;;;;5.70;1.05;;;3.50;99.90;;;;;;4892514;29;20055;-79
2023/01/19 08:01:17;;;;;;;9.65;1.40;;;4.70;99.90;;;;;;4875013;29;20070;-79
2023/01/19 08:03:43;;;;;;;5.40;1.08;;;3.80;99.90;;;;;;4874030;29;20048;-79
2023/01/19 08:06:18;;;;;;;8.20;0.85;;;4.20;99.90;;;;;;4890790;29;20054;-79
2023/01/19 08:08:44;;;;;;;5.82;1.00;;;3.80;99.90;;;;;;4887850;29;20032;-79
2023/01/19 08:11:10;;;;;;;7.00;0.80;;;3.60;99.90;;;;;;4889864;29;20050;-80
2023/01/19 08:13:36;;;;;;;5.30;0.90;;;4.10;99.90;;;;;;4875491;29;20320;-79
2023/01/19 08:16:01;;;;;;;4.57;1.10;;;4.70;99.90;;;;;;4890366;29;20501;-79
2023/01/19 08:18:27;;;;;;;8.43;1.87;;;3.60;99.90;;;;;;4875134;29;20095;-79
2023/01/19 08:20:53;;;;;;;6.57;1.35;;;4.20;99.90;;;;;;4892186;29;20292;-79
2023/01/19 08:23:19;;;;;;;8.52;1.45;;;3.60;99.90;;;;;;4874768;29;20047;-79
2023/01/19 08:25:45;;;;;;;9.52;1.20;;;3.90;99.90;;;;;;4890054;29;20043;-80
2023/01/19 08:28:13;;;;;;;17.92;1.80;;;3.70;99.90;;;;;;4885635;29;20044;-80
2023/01/19 08:30:39;;;;;;;14.32;2.00;;;4.00;99.90;;;;;;4891675;29;20103;-80
2023/01/19 08:33:09;;;;;;;8.75;1.23;;;3.80;99.90;;;;;;4888200;29;20048;-80
2023/01/19 08:35:40;;;;;;;4.97;1.25;;;3.80;99.90;;;;;;4891393;29;20056;-80
2023/01/19 08:38:07;;;;;;;9.95;1.20;;;3.80;99.90;;;;;;4887989;29;20096;-80
2023/01/19 08:40:35;;;;;;;6.65;1.27;;;3.80;99.90;;;;;;4890992;29;20570;-80
2023/01/19 08:43:04;;;;;;;7.20;1.30;;;3.80;99.90;;;;;;4892708;29;20138;-80
2023/01/19 08:45:30;;;;;;;10.00;1.50;;;3.80;99.90;;;;;;4887424;29;20127;-80
2023/01/19 08:47:57;;;;;;;11.93;2.30;;;3.70;99.90;;;;;;4873941;29;20511;-80
2023/01/19 08:50:27;;;;;;;13.10;1.55;;;4.20;99.90;;;;;;4891503;29;20123;-80
2023/01/19 08:53:01;;;;;;;13.23;2.08;;;3.80;99.90;;;;;;4887251;29;20084;-80
2023/01/19 08:55:28;;;;;;;13.65;1.90;;;3.90;99.90;;;;;;4890012;29;20564;-80
2023/01/19 08:57:56;;;;;;;9.63;2.10;;;4.10;99.90;;;;;;4888740;29;20131;-80
2023/01/19 09:00:23;;;;;;;12.40;1.70;;;4.70;99.90;;;;;;4858912;29;20497;-80
2023/01/19 09:02:49;;;;;;;12.23;2.10;;;5.30;99.90;;;;;;4886752;29;20052;-80
2023/01/19 09:05:16;;;;;;;13.60;2.03;;;5.70;99.90;;;;;;4889127;29;20048;-80
2023/01/19 09:07:44;;;;;;;10.02;1.60;;;5.90;99.90;;;;;;4889221;29;20044;-79
2023/01/19 09:10:10;;;;;;;8.00;1.40;;;6.10;99.90;;;;;;4885746;29;20036;-79
2023/01/19 09:12:36;;;;;;;10.77;1.42;;;5.80;99.90;;;;;;4886935;29;20063;-79
2023/01/19 09:15:01;;;;;;;8.30;1.80;;;5.60;99.90;;;;;;4873869;29;20048;-79
2023/01/19 09:17:27;;;;;;;17.20;2.38;;;5.20;99.90;;;;;;4873569;29;20040;-79
2023/01/19 09:19:53;;;;;;;15.48;2.10;;;4.80;99.90;;;;;;4887428;29;20063;-79
2023/01/19 09:22:18;;;;;;;13.67;1.60;;;5.30;99.90;;;;;;4858982;29;20052;-79
2023/01/19 09:24:44;;;;;;;12.27;2.50;;;4.50;99.90;;;;;;4888244;29;20295;-79
2023/01/19 09:27:10;;;;;;;14.20;2.70;;;4.70;99.90;;;;;;4887179;29;20395;-79
2023/01/19 09:29:35;;;;;;;9.10;1.38;;;4.70;99.90;;;;;;4873721;29;20044;-79
2023/01/19 09:32:01;;;;;;;11.73;1.87;;;4.10;99.90;;;;;;4873750;29;20048;-79
2023/01/19 09:34:27;;;;;;;7.82;1.50;;;4.30;99.90;;;;;;4874032;29;20088;-79
2023/01/19 09:36:53;;;;;;;7.47;1.77;;;4.00;99.90;;;;;;4888207;29;20044;-79
2023/01/19 09:39:19;;;;;;;11.25;1.15;;;4.20;99.90;;;;;;4874973;29;20111;-79
2023/01/19 09:42:07;;;;;;;9.23;1.10;;;5.50;99.90;;;;;;4889238;29;20063;-79
2023/01/19 09:44:34;;;;;;;8.45;1.30;;;5.30;99.90;;;;;;4889637;29;20048;-79
2023/01/19 09:47:13;;;;;;;8.68;1.33;;;6.10;99.90;;;;;;4890661;29;20497;-79
2023/01/19 09:49:51;;;;;;;11.65;1.95;;;6.90;99.90;;;;;;4887143;29;20083;-79
2023/01/19 09:52:19;;;;;;;8.68;2.13;;;7.60;99.90;;;;;;4887722;29;20036;-80
2023/01/19 09:54:53;;;;;;;10.05;1.58;;;8.10;99.90;;;;;;4884676;29;20040;-80
2023/01/19 09:57:20;;;;;;;7.80;1.48;;;8.40;99.90;;;;;;4889072;29;20048;-79
2023/01/19 09:59:49;;;;;;;5.35;1.27;;;8.50;99.90;;;;;;4889067;29;20063;-79
2023/01/19 10:02:53;;;;;;;11.13;1.55;;;8.60;99.90;;;;;;4889780;29;20068;-80
2023/01/19 10:05:33;;;;;;;9.73;1.60;;;8.90;99.90;;;;;;4871490;29;20076;-80
2023/01/19 10:08:02;;;;;;;6.72;1.67;;;9.10;99.90;;;;;;4884063;29;20057;-79
2023/01/19 10:10:30;;;;;;;6.35;1.50;;;9.40;99.90;;;;;;4888517;29;20043;-80
2023/01/19 10:13:20;;;;;;;11.10;1.55;;;9.60;99.90;;;;;;4886805;29;20387;-80
2023/01/19 10:16:01;;;;;;;8.77;1.35;;;9.70;99.90;;;;;;4872153;29;20131;-80
2023/01/19 10:18:46;;;;;;;12.60;1.45;;;9.60;99.90;;;;;;4872203;29;20036;-80
2023/01/19 10:21:30;;;;;;;10.60;1.73;;;9.20;99.90;;;;;;4886654;29;20556;-80
2023/01/19 10:24:08;;;;;;;5.63;1.20;;;9.60;99.90;;;;;;4887574;29;20501;-80
2023/01/19 10:26:44;;;;;;;7.90;1.45;;;9.80;99.90;;;;;;4874328;29;20040;-81
2023/01/19 10:29:27;;;;;;;8.30;1.30;;;10.20;99.90;;;;;;4886805;29;20086;-80
2023/01/19 10:32:05;;;;;;;10.43;1.42;;;10.20;99.90;;;;;;4886932;29;20396;-80
2023/01/19 10:34:31;;;;;;;8.85;1.40;;;10.10;99.90;;;;;;4887283;29;20076;-80
2023/01/19 10:37:12;;;;;;;10.33;1.80;;;9.80;99.90;;;;;;4891845;29;20048;-80
2023/01/19 10:39:39;;;;;;;6.32;1.10;;;9.90;99.90;;;;;;4889947;29;20379;-80
2023/01/19 10:42:09;;;;;;;8.48;1.50;;;10.10;99.90;;;;;;4891036;29;20127;-79
2023/01/19 10:44:36;;;;;;;10.07;1.33;;;10.40;99.90;;;;;;4891685;29;20048;-79
2023/01/19 10:47:05;;;;;;;8.15;1.52;;;10.90;99.90;;;;;;4894573;29;20071;-79
2023/01/19 10:49:37;;;;;;;5.43;1.20;;;10.70;99.90;;;;;;4889912;29;20386;-79
2023/01/19 10:52:06;;;;;;;7.43;1.23;;;10.60;99.90;;;;;;4891588;29;20509;-79
2023/01/19 10:54:35;;;;;;;11.07;1.80;;;10.90;99.90;;;;;;4893954;29;20047;-80
2023/01/19 10:57:08;;;;;;;10.52;1.73;;;11.30;99.90;;;;;;4890830;29;20036;-80
2023/01/19 10:59:48;;;;;;;7.82;1.55;;;11.70;99.90;;;;;;4874109;29;20032;-79
2023/01/19 11:02:25;;;;;;;8.68;1.65;;;12.30;99.90;;;;;;4877108;29;20040;-79
2023/01/19 11:04:53;;;;;;;5.72;1.30;;;12.50;99.90;;;;;;4887549;29;20036;-79
2023/01/19 11:07:22;;;;;;;7.28;1.27;;;12.80;99.90;;;;;;4893231;29;20390;-79
2023/01/19 11:09:49;;;;;;;5.93;1.20;;;12.90;99.90;;;;;;4876402;29;20040;-79
2023/01/19 11:12:20;;;;;;;7.57;1.42;;;12.90;99.90;;;;;;4888105;29;20059;-79
2023/01/19 11:14:47;;;;;;;8.95;1.40;;;13.00;99.90;;;;;;4890684;29;20047;-79
2023/01/19 11:17:24;;;;;;;6.47;1.20;;;12.70;99.90;;;;;;4887688;29;20047;-79
2023/01/19 11:19:59;;;;;;;11.23;1.25;;;12.80;99.90;;;;;;4873810;29;20500;-79
2023/01/19 11:22:31;;;;;;;7.22;1.30;;;13.00;99.90;;;;;;4890954;29;20184;-79
2023/01/19 11:25:03;;;;;;;7.45;1.45;;;13.20;99.90;;;;;;4887874;29;20056;-79
2023/01/19 11:27:33;;;;;;;8.27;1.40;;;12.90;99.90;;;;;;4872166;29;20127;-80
2023/01/19 11:30:09;;;;;;;8.77;1.35;;;13.30;99.90;;;;;;4893390;29;20124;-79
2023/01/19 11:32:35;;;;;;;8.27;1.45;;;13.70;99.90;;;;;;4888046;29;20042;-80
2023/01/19 11:35:32;;;;;;;9.18;1.60;;;13.70;99.90;;;;;;4857297;29;20045;-79
2023/01/19 11:38:17;;;;;;;10.70;1.38;;;13.80;99.90;;;;;;4872482;29;20049;-79
2023/01/19 11:40:57;;;;;;;8.00;1.52;;;13.80;99.90;;;;;;4890011;29;20040;-79
2023/01/19 11:43:28;;;;;;;8.82;1.40;;;13.70;99.90;;;;;;4889573;29;20040;-79
2023/01/19 11:45:55;;;;;;;6.28;1.20;;;14.00;99.90;;;;;;4877512;29;20040;-79
2023/01/19 11:48:34;;;;;;;7.43;1.30;;;13.80;99.90;;;;;;4875455;29;20053;-79
2023/01/19 11:51:04;;;;;;;5.82;1.13;;;13.50;99.90;;;;;;4890560;29;20812;-79
2023/01/19 11:53:34;;;;;;;5.00;1.10;;;13.90;99.90;;;;;;4875564;29;20177;-79
2023/01/19 11:56:12;;;;;;;5.95;1.33;;;14.10;99.90;;;;;;4890970;29;20072;-79
2023/01/19 11:58:41;;;;;;;8.18;1.13;;;14.30;99.90;;;;;;4893116;29;20044;-79
2023/01/19 12:01:28;;;;;;;3.90;0.70;;;13.90;99.90;;;;;;4888917;29;20048;-77
2023/01/19 12:04:11;;;;;;;4.85;0.77;;;13.60;99.90;;;;;;4888285;29;20055;-78
2023/01/19 12:06:46;;;;;;;5.72;0.70;;;13.10;99.90;;;;;;4887608;29;20040;-78
2023/01/19 12:09:32;;;;;;;5.43;1.00;;;12.30;99.90;;;;;;4890195;29;20693;-78
2023/01/19 12:12:06;;;;;;;3.97;0.90;;;12.30;99.90;;;;;;4887485;29;20052;-78
2023/01/19 12:14:46;;;;;;;6.90;1.10;;;12.30;99.90;;;;;;4888754;29;20056;-78
2023/01/19 12:17:22;;;;;;;7.32;1.40;;;12.20;99.90;;;;;;4892886;29;20040;-78
2023/01/19 12:19:59;;;;;;;5.60;0.88;;;11.60;99.90;;;;;;4892281;29;20044;-78
2023/01/19 12:22:27;;;;;;;7.83;1.30;;;11.20;99.90;;;;;;4872894;29;20067;-78
2023/01/19 12:24:56;;;;;;;7.80;1.35;;;11.10;99.90;;;;;;4876524;29;20103;-78
2023/01/19 12:27:39;;;;;;;5.85;0.93;;;10.80;99.90;;;;;;4871133;29;20041;-79
2023/01/19 12:30:14;;;;;;;6.40;0.90;;;10.10;99.90;;;;;;4890167;29;20056;-79
2023/01/19 12:32:41;;;;;;;8.10;1.05;;;9.60;99.90;;;;;;4885855;29;20046;-78
2023/01/19 12:35:46;;;;;;;6.40;0.90;;;9.20;99.90;;;;;;4892149;29;20749;-78
2023/01/19 12:38:44;;;;;;;6.38;0.88;;;8.70;99.90;;;;;;4882595;29;20044;-78
2023/01/19 12:41:18;;;;;;;5.05;0.90;;;9.30;99.90;;;;;;4870400;29;20056;-79
2023/01/19 12:43:44;;;;;;;4.35;0.82;;;10.10;99.90;;;;;;4867998;29;20046;-78
2023/01/19 12:46:28;;;;;;;4.82;0.93;;;10.60;99.90;;;;;;4888703;29;20048;-79
2023/01/19 12:49:02;;;;;;;5.75;0.90;;;10.60;99.90;;;;;;4889588;29;20101;-79
2023/01/19 12:51:28;;;;;;;12.73;1.10;;;9.90;99.90;;;;;;4890011;29;20045;-79
2023/01/19 12:53:58;;;;;;;4.63;0.63;;;9.60;99.90;;;;;;4892138;29;20055;-80
2023/01/19 12:56:33;;;;;;;6.22;1.20;;;9.50;99.90;;;;;;4889478;29;20497;-78
2023/01/19 12:58:59;;;;;;;4.07;0.75;;;9.20;99.90;;;;;;4888704;29;20479;-78
2023/01/19 13:01:25;;;;;;;1.65;0.40;;;8.90;99.90;;;;;;4874108;29;20227;-78
2023/01/19 13:04:07;;;;;;;3.05;1.42;;;8.50;99.90;;;;;;4887902;29;20544;-78
2023/01/19 13:06:48;;;;;;;6.20;1.00;;;8.00;99.90;;;;;;4888292;29;20045;-78
2023/01/19 13:09:31;;;;;;;4.82;0.57;;;7.90;99.90;;;;;;4885196;29;20513;-78
2023/01/19 13:12:13;;;;;;;6.07;0.68;;;7.80;99.90;;;;;;4890225;29;20056;-79
2023/01/19 13:14:39;;;;;;;5.88;0.70;;;7.70;99.90;;;;;;4888296;29;20049;-78
2023/01/19 13:17:21;;;;;;;4.95;0.57;;;7.80;99.90;;;;;;4871017;29;20036;-78
2023/01/19 13:19:52;;;;;;;6.32;1.08;;;7.80;99.90;;;;;;4885582;29;20040;-78
2023/01/19 13:22:49;;;;;;;3.90;0.57;;;7.90;99.90;;;;;;4889051;29;20049;-78
2023/01/19 13:25:34;;;;;;;5.55;0.90;;;8.00;99.90;;;;;;4863354;29;20056;-78